sensor_id;sensor_type;location;lat;lon;timestamp;P1;durP1;ratioP1;P2;durP2;ratioP2
42140;SDS011;27809;51.864;5.646;2023-04-25T00:02:11;7.43;;;1.75;;
42140;SDS011;27809;51.864;5.646;2023-04-25T00:04:38;10.13;;;1.90;;
42140;SDS011;27809;51.864;5.646;2023-04-25T00:07:03;5.13;;;0.75;;
42140;SDS011;27809;51.864;5.646;2023-04-25T00:09:29;3.50;;;0.82;;
42140;SDS011;27809;51.864;5.646;2023-04-25T00:11:55;4.95;;;1.00;;
42140;SDS011;27809;51.864;5.646;2023-04-25T00:14:21;12.30;;;2.13;;
42140;SDS011;27809;51.864;5.646;2023-04-25T00:16:47;5.43;;;2.67;;
42140;SDS011;27809;51.864;5.646;2023-04-25T00:19:13;4.72;;;1.20;;
42140;SDS011;27809;51.864;5.646;2023-04-25T00:21:38;10.70;;;1.60;;
42140;SDS011;27809;51.864;5.646;2023-04-25T00:24:05;7.85;;;2.10;;
42140;SDS011;27809;51.864;5.646;2023-04-25T00:26:33;11.50;;;0.90;;
42140;SDS011;27809;51.864;5.646;2023-04-25T00:28:59;9.85;;;0.93;;
42140;SDS011;27809;51.864;5.646;2023-04-25T00:31:24;9.05;;;2.05;;
42140;SDS011;27809;51.864;5.646;2023-04-25T00:33:50;4.65;;;0.85;;
42140;SDS011;27809;51.864;5.646;2023-04-25T00:36:15;10.02;;;2.10;;
42140;SDS011;27809;51.864;5.646;2023-04-25T00:38:42;10.70;;;0.80;;
42140;SDS011;27809;51.864;5.646;2023-04-25T00:41:07;3.72;;;1.50;;
42140;SDS011;27809;51.864;5.646;2023-04-25T00:43:33;5.75;;;0.65;;
42140;SDS011;27809;51.864;5.646;2023-04-25T00:46:01;9.50;;;1.58;;
42140;SDS011;27809;51.864;5.646;2023-04-25T00:48:26;8.75;;;1.73;;
42140;SDS011;27809;51.864;5.646;2023-04-25T00:50:53;4.65;;;0.60;;
42140;SDS011;27809;51.864;5.646;2023-04-25T00:53:23;11.02;;;1.27;;
42140;SDS011;27809;51.864;5.646;2023-04-25T00:55:50;9.20;;;2.08;;
42140;SDS011;27809;51.864;5.646;2023-04-25T00:58:20;13.77;;;2.03;;
42140;SDS011;27809;51.864;5.646;2023-04-25T01:00:47;9.18;;;1.65;;
42140;SDS011;27809;51.864;5.646;2023-04-25T01:03:15;7.28;;;1.65;;
42140;SDS011;27809;51.864;5.646;2023-04-25T01:05:42;6.22;;;1.27;;
42140;SDS011;27809;51.864;5.646;2023-04-25T01:08:08;7.53;;;2.10;;
42140;SDS011;27809;51.864;5.646;2023-04-25T01:10:35;7.57;;;1.27;;
42140;SDS011;27809;51.864;5.646;2023-04-25T01:13:01;4.95;;;0.90;;
42140;SDS011;27809;51.864;5.646;2023-04-25T01:15:27;4.03;;;2.30;;
42140;SDS011;27809;51.864;5.646;2023-04-25T01:17:52;8.23;;;2.15;;
42140;SDS011;27809;51.864;5.646;2023-04-25T01:20:20;5.82;;;1.15;;
42140;SDS011;27809;51.864;5.646;2023-04-25T01:22:47;4.28;;;1.10;;
42140;SDS011;27809;51.864;5.646;2023-04-25T01:25:14;5.57;;;1.15;;
42140;SDS011;27809;51.864;5.646;2023-04-25T01:27:39;8.30;;;0.88;;
42140;SDS011;27809;51.864;5.646;2023-04-25T01:30:06;8.63;;;1.63;;
42140;SDS011;27809;51.864;5.646;2023-04-25T01:32:32;6.40;;;1.45;;
42140;SDS011;27809;51.864;5.646;2023-04-25T01:35:04;10.65;;;1.73;;
42140;SDS011;27809;51.864;5.646;2023-04-25T01:37:38;6.75;;;1.00;;
42140;SDS011;27809;51.864;5.646;2023-04-25T01:40:04;11.68;;;3.22;;
42140;SDS011;27809;51.864;5.646;2023-04-25T01:42:34;7.85;;;1.90;;
42140;SDS011;27809;51.864;5.646;2023-04-25T01:45:00;8.75;;;1.75;;
42140;SDS011;27809;51.864;5.646;2023-04-25T01:47:26;9.80;;;1.58;;
42140;SDS011;27809;51.864;5.646;2023-04-25T01:49:52;11.68;;;1.60;;
42140;SDS011;27809;51.864;5.646;2023-04-25T01:52:17;12.35;;;2.70;;
42140;SDS011;27809;51.864;5.646;2023-04-25T01:54:43;3.60;;;1.52;;
42140;SDS011;27809;51.864;5.646;2023-04-25T01:57:10;14.77;;;2.05;;
42140;SDS011;27809;51.864;5.646;2023-04-25T01:59:36;6.60;;;1.17;;
42140;SDS011;27809;51.864;5.646;2023-04-25T02:02:01;5.18;;;1.33;;
42140;SDS011;27809;51.864;5.646;2023-04-25T02:04:29;8.32;;;1.70;;
42140;SDS011;27809;51.864;5.646;2023-04-25T02:06:55;7.65;;;2.00;;
42140;SDS011;27809;51.864;5.646;2023-04-25T02:09:20;6.55;;;1.85;;
42140;SDS011;27809;51.864;5.646;2023-04-25T02:11:46;7.80;;;2.42;;
42140;SDS011;27809;51.864;5.646;2023-04-25T02:14:11;5.22;;;0.93;;
42140;SDS011;27809;51.864;5.646;2023-04-25T02:16:37;3.33;;;0.90;;
42140;SDS011;27809;51.864;5.646;2023-04-25T02:19:04;6.80;;;2.42;;
42140;SDS011;27809;51.864;5.646;2023-04-25T02:21:30;11.07;;;1.63;;
42140;SDS011;27809;51.864;5.646;2023-04-25T02:23:56;8.65;;;1.23;;
42140;SDS011;27809;51.864;5.646;2023-04-25T02:26:22;6.97;;;1.63;;
42140;SDS011;27809;51.864;5.646;2023-04-25T02:28:48;6.65;;;2.75;;
42140;SDS011;27809;51.864;5.646;2023-04-25T02:31:14;6.22;;;1.38;;
42140;SDS011;27809;51.864;5.646;2023-04-25T02:33:40;3.67;;;1.45;;
42140;SDS011;27809;51.864;5.646;2023-04-25T02:36:06;12.10;;;1.67;;
42140;SDS011;27809;51.864;5.646;2023-04-25T02:38:31;9.80;;;1.80;;
42140;SDS011;27809;51.864;5.646;2023-04-25T02:40:57;10.02;;;2.17;;
42140;SDS011;27809;51.864;5.646;2023-04-25T02:43:22;6.88;;;1.60;;
42140;SDS011;27809;51.864;5.646;2023-04-25T02:45:48;6.72;;;2.40;;
42140;SDS011;27809;51.864;5.646;2023-04-25T02:48:13;6.60;;;2.13;;
42140;SDS011;27809;51.864;5.646;2023-04-25T02:50:39;6.82;;;1.63;;
42140;SDS011;27809;51.864;5.646;2023-04-25T02:53:04;11.88;;;2.15;;
42140;SDS011;27809;51.864;5.646;2023-04-25T02:55:30;5.72;;;1.55;;
42140;SDS011;27809;51.864;5.646;2023-04-25T02:57:55;7.47;;;1.67;;
42140;SDS011;27809;51.864;5.646;2023-04-25T03:00:21;9.52;;;1.65;;
42140;SDS011;27809;51.864;5.646;2023-04-25T03:02:47;11.95;;;2.10;;
42140;SDS011;27809;51.864;5.646;2023-04-25T03:05:13;4.07;;;2.15;;
42140;SDS011;27809;51.864;5.646;2023-04-25T03:07:38;13.20;;;2.50;;
42140;SDS011;27809;51.864;5.646;2023-04-25T03:10:05;5.50;;;2.00;;
42140;SDS011;27809;51.864;5.646;2023-04-25T03:12:32;16.52;;;2.75;;
42140;SDS011;27809;51.864;5.646;2023-04-25T03:14:57;17.42;;;2.17;;
42140;SDS011;27809;51.864;5.646;2023-04-25T03:17:23;11.32;;;3.42;;
42140;SDS011;27809;51.864;5.646;2023-04-25T03:19:48;9.85;;;2.42;;
42140;SDS011;27809;51.864;5.646;2023-04-25T03:22:14;12.55;;;3.92;;
42140;SDS011;27809;51.864;5.646;2023-04-25T03:24:39;11.55;;;1.80;;
42140;SDS011;27809;51.864;5.646;2023-04-25T03:27:05;6.68;;;2.03;;
42140;SDS011;27809;51.864;5.646;2023-04-25T03:29:30;7.07;;;1.58;;
42140;SDS011;27809;51.864;5.646;2023-04-25T03:31:56;7.80;;;1.70;;
42140;SDS011;27809;51.864;5.646;2023-04-25T03:34:21;9.98;;;2.75;;
42140;SDS011;27809;51.864;5.646;2023-04-25T03:36:47;7.88;;;2.08;;
42140;SDS011;27809;51.864;5.646;2023-04-25T03:39:12;15.15;;;2.00;;
42140;SDS011;27809;51.864;5.646;2023-04-25T03:41:38;11.77;;;2.72;;
42140;SDS011;27809;51.864;5.646;2023-04-25T03:44:04;5.32;;;1.60;;
42140;SDS011;27809;51.864;5.646;2023-04-25T03:46:29;8.07;;;2.35;;
42140;SDS011;27809;51.864;5.646;2023-04-25T03:48:55;8.35;;;2.00;;
42140;SDS011;27809;51.864;5.646;2023-04-25T03:51:20;21.15;;;2.03;;
42140;SDS011;27809;51.864;5.646;2023-04-25T03:53:46;14.05;;;2.42;;
42140;SDS011;27809;51.864;5.646;2023-04-25T03:56:11;6.82;;;2.95;;
42140;SDS011;27809;51.864;5.646;2023-04-25T03:58:37;13.68;;;3.90;;
42140;SDS011;27809;51.864;5.646;2023-04-25T04:01:02;12.07;;;3.45;;
42140;SDS011;27809;51.864;5.646;2023-04-25T04:03:32;10.07;;;1.92;;
42140;SDS011;27809;51.864;5.646;2023-04-25T04:05:59;12.85;;;3.72;;
42140;SDS011;27809;51.864;5.646;2023-04-25T04:08:24;13.07;;;3.42;;
42140;SDS011;27809;51.864;5.646;2023-04-25T04:10:50;5.07;;;2.05;;
42140;SDS011;27809;51.864;5.646;2023-04-25T04:13:15;23.25;;;2.70;;
42140;SDS011;27809;51.864;5.646;2023-04-25T04:15:41;10.38;;;2.05;;
42140;SDS011;27809;51.864;5.646;2023-04-25T04:18:06;12.95;;;1.45;;
42140;SDS011;27809;51.864;5.646;2023-04-25T04:20:32;3.70;;;2.00;;
42140;SDS011;27809;51.864;5.646;2023-04-25T04:22:57;11.60;;;2.58;;
42140;SDS011;27809;51.864;5.646;2023-04-25T04:25:23;6.93;;;1.75;;
42140;SDS011;27809;51.864;5.646;2023-04-25T04:27:49;11.68;;;2.85;;
42140;SDS011;27809;51.864;5.646;2023-04-25T04:30:19;7.20;;;1.42;;
42140;SDS011;27809;51.864;5.646;2023-04-25T04:32:46;16.83;;;1.95;;
42140;SDS011;27809;51.864;5.646;2023-04-25T04:35:13;8.90;;;2.35;;
42140;SDS011;27809;51.864;5.646;2023-04-25T04:37:39;10.93;;;2.22;;
42140;SDS011;27809;51.864;5.646;2023-04-25T04:40:05;9.35;;;1.58;;
42140;SDS011;27809;51.864;5.646;2023-04-25T04:42:31;6.93;;;2.97;;
42140;SDS011;27809;51.864;5.646;2023-04-25T04:44:57;17.15;;;2.03;;
42140;SDS011;27809;51.864;5.646;2023-04-25T04:47:23;22.52;;;2.40;;
42140;SDS011;27809;51.864;5.646;2023-04-25T04:49:50;11.05;;;1.90;;
42140;SDS011;27809;51.864;5.646;2023-04-25T04:52:16;8.65;;;1.67;;
42140;SDS011;27809;51.864;5.646;2023-04-25T04:54:41;8.90;;;1.48;;
42140;SDS011;27809;51.864;5.646;2023-04-25T04:57:07;7.55;;;2.78;;
42140;SDS011;27809;51.864;5.646;2023-04-25T04:59:32;10.45;;;2.50;;
42140;SDS011;27809;51.864;5.646;2023-04-25T05:01:58;4.32;;;1.70;;
42140;SDS011;27809;51.864;5.646;2023-04-25T05:04:23;5.43;;;1.85;;
42140;SDS011;27809;51.864;5.646;2023-04-25T05:06:49;11.30;;;2.00;;
42140;SDS011;27809;51.864;5.646;2023-04-25T05:09:16;7.65;;;1.33;;
42140;SDS011;27809;51.864;5.646;2023-04-25T05:11:41;6.35;;;1.50;;
42140;SDS011;27809;51.864;5.646;2023-04-25T05:14:07;11.23;;;3.72;;
42140;SDS011;27809;51.864;5.646;2023-04-25T05:16:32;4.90;;;1.67;;
42140;SDS011;27809;51.864;5.646;2023-04-25T05:18:58;14.00;;;2.13;;
42140;SDS011;27809;51.864;5.646;2023-04-25T05:21:23;6.13;;;1.55;;
42140;SDS011;27809;51.864;5.646;2023-04-25T05:23:49;9.90;;;1.45;;
42140;SDS011;27809;51.864;5.646;2023-04-25T05:26:14;11.15;;;1.48;;
42140;SDS011;27809;51.864;5.646;2023-04-25T05:28:40;7.03;;;2.35;;
42140;SDS011;27809;51.864;5.646;2023-04-25T05:31:06;15.43;;;1.35;;
42140;SDS011;27809;51.864;5.646;2023-04-25T05:33:32;7.68;;;1.25;;
42140;SDS011;27809;51.864;5.646;2023-04-25T05:35:58;9.75;;;1.33;;
42140;SDS011;27809;51.864;5.646;2023-04-25T05:38:23;18.77;;;2.00;;
42140;SDS011;27809;51.864;5.646;2023-04-25T05:40:49;12.20;;;2.38;;
42140;SDS011;27809;51.864;5.646;2023-04-25T05:43:14;8.98;;;0.85;;
42140;SDS011;27809;51.864;5.646;2023-04-25T05:45:40;3.97;;;1.00;;
42140;SDS011;27809;51.864;5.646;2023-04-25T05:48:05;8.65;;;1.80;;
42140;SDS011;27809;51.864;5.646;2023-04-25T05:50:31;2.35;;;0.47;;
42140;SDS011;27809;51.864;5.646;2023-04-25T05:52:56;11.52;;;1.15;;
42140;SDS011;27809;51.864;5.646;2023-04-25T05:55:22;7.68;;;0.77;;
42140;SDS011;27809;51.864;5.646;2023-04-25T05:57:47;4.45;;;1.08;;
42140;SDS011;27809;51.864;5.646;2023-04-25T06:00:13;6.68;;;0.77;;
42140;SDS011;27809;51.864;5.646;2023-04-25T06:02:40;5.75;;;0.95;;
42140;SDS011;27809;51.864;5.646;2023-04-25T06:05:06;5.78;;;1.13;;
42140;SDS011;27809;51.864;5.646;2023-04-25T06:07:32;4.95;;;1.17;;
42140;SDS011;27809;51.864;5.646;2023-04-25T06:09:58;4.05;;;0.70;;
42140;SDS011;27809;51.864;5.646;2023-04-25T06:12:25;1.60;;;0.40;;
42140;SDS011;27809;51.864;5.646;2023-04-25T06:14:50;6.75;;;2.22;;
42140;SDS011;27809;51.864;5.646;2023-04-25T06:17:15;6.78;;;0.93;;
42140;SDS011;27809;51.864;5.646;2023-04-25T06:19:41;7.60;;;0.80;;
42140;SDS011;27809;51.864;5.646;2023-04-25T06:22:07;7.43;;;1.00;;
42140;SDS011;27809;51.864;5.646;2023-04-25T06:24:32;5.45;;;0.57;;
42140;SDS011;27809;51.864;5.646;2023-04-25T06:26:58;8.10;;;1.10;;
42140;SDS011;27809;51.864;5.646;2023-04-25T06:29:25;6.30;;;1.52;;
42140;SDS011;27809;51.864;5.646;2023-04-25T06:31:50;5.60;;;1.30;;
42140;SDS011;27809;51.864;5.646;2023-04-25T06:34:16;4.97;;;1.33;;
42140;SDS011;27809;51.864;5.646;2023-04-25T06:36:42;2.22;;;0.52;;
42140;SDS011;27809;51.864;5.646;2023-04-25T06:39:09;15.60;;;1.27;;
42140;SDS011;27809;51.864;5.646;2023-04-25T06:41:34;10.23;;;1.10;;
42140;SDS011;27809;51.864;5.646;2023-04-25T06:44:00;5.35;;;1.13;;
42140;SDS011;27809;51.864;5.646;2023-04-25T06:46:26;6.47;;;1.55;;
42140;SDS011;27809;51.864;5.646;2023-04-25T06:48:51;22.60;;;1.50;;
42140;SDS011;27809;51.864;5.646;2023-04-25T06:51:17;10.38;;;1.27;;
42140;SDS011;27809;51.864;5.646;2023-04-25T06:53:42;6.35;;;1.02;;
42140;SDS011;27809;51.864;5.646;2023-04-25T06:56:08;6.95;;;1.52;;
42140;SDS011;27809;51.864;5.646;2023-04-25T06:58:33;1.90;;;0.45;;
42140;SDS011;27809;51.864;5.646;2023-04-25T07:00:59;7.05;;;1.15;;
42140;SDS011;27809;51.864;5.646;2023-04-25T07:03:25;3.03;;;0.40;;
42140;SDS011;27809;51.864;5.646;2023-04-25T07:05:50;17.58;;;2.88;;
42140;SDS011;27809;51.864;5.646;2023-04-25T07:08:16;12.65;;;1.52;;
42140;SDS011;27809;51.864;5.646;2023-04-25T07:10:42;8.73;;;0.43;;
42140;SDS011;27809;51.864;5.646;2023-04-25T07:13:07;18.05;;;1.98;;
42140;SDS011;27809;51.864;5.646;2023-04-25T07:15:33;3.70;;;1.08;;
42140;SDS011;27809;51.864;5.646;2023-04-25T07:17:59;1.00;;;0.32;;
42140;SDS011;27809;51.864;5.646;2023-04-25T07:20:24;8.18;;;1.10;;
42140;SDS011;27809;51.864;5.646;2023-04-25T07:22:50;4.63;;;0.95;;
42140;SDS011;27809;51.864;5.646;2023-04-25T07:25:16;3.30;;;0.30;;
42140;SDS011;27809;51.864;5.646;2023-04-25T07:27:42;5.05;;;0.45;;
42140;SDS011;27809;51.864;5.646;2023-04-25T07:30:08;13.82;;;1.10;;
42140;SDS011;27809;51.864;5.646;2023-04-25T07:32:34;3.35;;;0.40;;
42140;SDS011;27809;51.864;5.646;2023-04-25T07:35:00;4.32;;;1.10;;
42140;SDS011;27809;51.864;5.646;2023-04-25T07:37:26;4.00;;;0.32;;
42140;SDS011;27809;51.864;5.646;2023-04-25T07:39:52;7.75;;;0.88;;
42140;SDS011;27809;51.864;5.646;2023-04-25T07:42:17;6.20;;;1.52;;
42140;SDS011;27809;51.864;5.646;2023-04-25T07:44:43;12.85;;;1.42;;
42140;SDS011;27809;51.864;5.646;2023-04-25T07:47:09;5.05;;;0.80;;
42140;SDS011;27809;51.864;5.646;2023-04-25T07:49:35;7.15;;;1.38;;
42140;SDS011;27809;51.864;5.646;2023-04-25T07:52:02;7.65;;;1.30;;
42140;SDS011;27809;51.864;5.646;2023-04-25T07:54:28;4.78;;;0.70;;
42140;SDS011;27809;51.864;5.646;2023-04-25T07:56:54;11.95;;;1.45;;
42140;SDS011;27809;51.864;5.646;2023-04-25T07:59:20;5.88;;;1.02;;
42140;SDS011;27809;51.864;5.646;2023-04-25T08:04:51;6.15;;;1.35;;
42140;SDS011;27809;51.864;5.646;2023-04-25T08:07:16;3.30;;;0.77;;
42140;SDS011;27809;51.864;5.646;2023-04-25T08:09:41;3.20;;;0.70;;
42140;SDS011;27809;51.864;5.646;2023-04-25T08:12:07;6.85;;;0.55;;
42140;SDS011;27809;51.864;5.646;2023-04-25T08:14:33;6.82;;;0.30;;
42140;SDS011;27809;51.864;5.646;2023-04-25T08:17:01;10.60;;;1.42;;
42140;SDS011;27809;51.864;5.646;2023-04-25T08:19:28;5.55;;;0.43;;
42140;SDS011;27809;51.864;5.646;2023-04-25T08:21:55;7.63;;;0.40;;
42140;SDS011;27809;51.864;5.646;2023-04-25T08:24:21;5.40;;;0.90;;
42140;SDS011;27809;51.864;5.646;2023-04-25T08:26:47;5.05;;;0.88;;
42140;SDS011;27809;51.864;5.646;2023-04-25T08:29:12;1.60;;;0.20;;
42140;SDS011;27809;51.864;5.646;2023-04-25T08:31:38;3.38;;;0.20;;
42140;SDS011;27809;51.864;5.646;2023-04-25T08:34:03;5.32;;;0.93;;
42140;SDS011;27809;51.864;5.646;2023-04-25T08:36:29;3.13;;;0.50;;
42140;SDS011;27809;51.864;5.646;2023-04-25T08:38:54;6.53;;;0.70;;
42140;SDS011;27809;51.864;5.646;2023-04-25T08:41:20;6.30;;;0.40;;
42140;SDS011;27809;51.864;5.646;2023-04-25T08:43:47;1.10;;;0.10;;
42140;SDS011;27809;51.864;5.646;2023-04-25T08:46:13;1.52;;;0.35;;
42140;SDS011;27809;51.864;5.646;2023-04-25T08:48:43;2.17;;;0.70;;
42140;SDS011;27809;51.864;5.646;2023-04-25T08:51:10;3.67;;;0.50;;
42140;SDS011;27809;51.864;5.646;2023-04-25T08:53:40;17.73;;;2.25;;
42140;SDS011;27809;51.864;5.646;2023-04-25T08:56:07;3.85;;;0.45;;
42140;SDS011;27809;51.864;5.646;2023-04-25T08:58:35;5.38;;;0.47;;
42140;SDS011;27809;51.864;5.646;2023-04-25T09:01:01;2.22;;;0.20;;
42140;SDS011;27809;51.864;5.646;2023-04-25T09:03:28;2.60;;;0.30;;
42140;SDS011;27809;51.864;5.646;2023-04-25T09:05:54;5.13;;;1.02;;
42140;SDS011;27809;51.864;5.646;2023-04-25T09:08:20;1.55;;;0.45;;
42140;SDS011;27809;51.864;5.646;2023-04-25T09:10:46;4.75;;;0.40;;
42140;SDS011;27809;51.864;5.646;2023-04-25T09:13:13;2.22;;;0.28;;
42140;SDS011;27809;51.864;5.646;2023-04-25T09:15:48;1.27;;;0.30;;
42140;SDS011;27809;51.864;5.646;2023-04-25T09:18:25;6.82;;;1.20;;
42140;SDS011;27809;51.864;5.646;2023-04-25T09:20:53;4.85;;;0.52;;
42140;SDS011;27809;51.864;5.646;2023-04-25T09:23:20;5.13;;;0.40;;
42140;SDS011;27809;51.864;5.646;2023-04-25T09:25:48;1.90;;;0.57;;
42140;SDS011;27809;51.864;5.646;2023-04-25T09:28:15;9.70;;;0.40;;
42140;SDS011;27809;51.864;5.646;2023-04-25T09:30:41;1.23;;;0.20;;
42140;SDS011;27809;51.864;5.646;2023-04-25T09:33:08;4.82;;;0.25;;
42140;SDS011;27809;51.864;5.646;2023-04-25T09:35:35;4.63;;;0.98;;
42140;SDS011;27809;51.864;5.646;2023-04-25T09:38:06;1.58;;;0.17;;
42140;SDS011;27809;51.864;5.646;2023-04-25T09:40:44;1.80;;;0.50;;
42140;SDS011;27809;51.864;5.646;2023-04-25T09:43:20;7.25;;;0.77;;
42140;SDS011;27809;51.864;5.646;2023-04-25T09:45:47;7.13;;;0.55;;
42140;SDS011;27809;51.864;5.646;2023-04-25T09:50:45;4.10;;;0.63;;
42140;SDS011;27809;51.864;5.646;2023-04-25T09:53:29;0.90;;;0.13;;
42140;SDS011;27809;51.864;5.646;2023-04-25T09:55:56;2.00;;;0.17;;
42140;SDS011;27809;51.864;5.646;2023-04-25T09:58:25;2.92;;;0.20;;
42140;SDS011;27809;51.864;5.646;2023-04-25T10:00:54;2.65;;;0.40;;
42140;SDS011;27809;51.864;5.646;2023-04-25T10:03:25;3.88;;;0.30;;
42140;SDS011;27809;51.864;5.646;2023-04-25T10:05:51;2.92;;;0.35;;
42140;SDS011;27809;51.864;5.646;2023-04-25T10:08:19;2.50;;;0.45;;
42140;SDS011;27809;51.864;5.646;2023-04-25T10:10:46;5.07;;;0.43;;
42140;SDS011;27809;51.864;5.646;2023-04-25T10:13:12;4.70;;;0.10;;
42140;SDS011;27809;51.864;5.646;2023-04-25T10:15:39;4.13;;;0.57;;
42140;SDS011;27809;51.864;5.646;2023-04-25T10:18:06;8.30;;;0.25;;
42140;SDS011;27809;51.864;5.646;2023-04-25T10:20:32;1.85;;;0.25;;
42140;SDS011;27809;51.864;5.646;2023-04-25T10:22:58;2.30;;;0.20;;
42140;SDS011;27809;51.864;5.646;2023-04-25T10:25:38;3.08;;;0.20;;
42140;SDS011;27809;51.864;5.646;2023-04-25T10:28:05;2.85;;;0.32;;
42140;SDS011;27809;51.864;5.646;2023-04-25T10:30:30;2.88;;;0.50;;
42140;SDS011;27809;51.864;5.646;2023-04-25T10:32:56;1.92;;;0.17;;
42140;SDS011;27809;51.864;5.646;2023-04-25T10:35:25;4.82;;;0.50;;
42140;SDS011;27809;51.864;5.646;2023-04-25T10:38:10;1.95;;;0.40;;
42140;SDS011;27809;51.864;5.646;2023-04-25T10:40:39;3.05;;;0.22;;
42140;SDS011;27809;51.864;5.646;2023-04-25T10:46:01;3.28;;;0.40;;
42140;SDS011;27809;51.864;5.646;2023-04-25T10:48:28;10.15;;;0.30;;
42140;SDS011;27809;51.864;5.646;2023-04-25T10:51:08;2.58;;;0.40;;
42140;SDS011;27809;51.864;5.646;2023-04-25T10:53:37;3.58;;;0.40;;
42140;SDS011;27809;51.864;5.646;2023-04-25T10:56:19;0.55;;;0.20;;
42140;SDS011;27809;51.864;5.646;2023-04-25T10:58:46;2.33;;;0.75;;
42140;SDS011;27809;51.864;5.646;2023-04-25T11:01:12;6.25;;;0.38;;
42140;SDS011;27809;51.864;5.646;2023-04-25T11:03:42;8.45;;;0.77;;
42140;SDS011;27809;51.864;5.646;2023-04-25T11:06:31;4.60;;;0.90;;
42140;SDS011;27809;51.864;5.646;2023-04-25T11:09:02;6.40;;;0.28;;
42140;SDS011;27809;51.864;5.646;2023-04-25T11:11:28;7.40;;;0.88;;
42140;SDS011;27809;51.864;5.646;2023-04-25T11:13:54;7.32;;;0.60;;
42140;SDS011;27809;51.864;5.646;2023-04-25T11:16:19;0.98;;;0.20;;
42140;SDS011;27809;51.864;5.646;2023-04-25T11:18:50;1.23;;;0.20;;
42140;SDS011;27809;51.864;5.646;2023-04-25T11:21:15;5.15;;;0.30;;
42140;SDS011;27809;51.864;5.646;2023-04-25T11:23:42;3.40;;;0.20;;
42140;SDS011;27809;51.864;5.646;2023-04-25T11:26:10;2.08;;;0.60;;
42140;SDS011;27809;51.864;5.646;2023-04-25T11:28:37;6.93;;;0.57;;
42140;SDS011;27809;51.864;5.646;2023-04-25T11:31:03;2.47;;;0.40;;
42140;SDS011;27809;51.864;5.646;2023-04-25T11:33:29;6.70;;;0.17;;
42140;SDS011;27809;51.864;5.646;2023-04-25T11:35:54;0.55;;;0.32;;
42140;SDS011;27809;51.864;5.646;2023-04-25T11:38:24;1.25;;;0.40;;
42140;SDS011;27809;51.864;5.646;2023-04-25T11:40:51;3.97;;;0.45;;
42140;SDS011;27809;51.864;5.646;2023-04-25T11:43:18;4.05;;;0.38;;
42140;SDS011;27809;51.864;5.646;2023-04-25T11:45:46;3.05;;;0.30;;
42140;SDS011;27809;51.864;5.646;2023-04-25T11:48:12;3.35;;;0.40;;
42140;SDS011;27809;51.864;5.646;2023-04-25T11:50:41;2.25;;;0.40;;
42140;SDS011;27809;51.864;5.646;2023-04-25T11:53:07;14.15;;;1.95;;
42140;SDS011;27809;51.864;5.646;2023-04-25T11:55:33;10.93;;;0.40;;
42140;SDS011;27809;51.864;5.646;2023-04-25T11:58:00;1.58;;;0.50;;
42140;SDS011;27809;51.864;5.646;2023-04-25T12:00:26;1.83;;;0.40;;
42140;SDS011;27809;51.864;5.646;2023-04-25T12:02:52;3.67;;;0.35;;
42140;SDS011;27809;51.864;5.646;2023-04-25T12:05:19;0.90;;;0.25;;
42140;SDS011;27809;51.864;5.646;2023-04-25T12:07:45;3.45;;;0.52;;
42140;SDS011;27809;51.864;5.646;2023-04-25T12:10:12;1.65;;;1.15;;
42140;SDS011;27809;51.864;5.646;2023-04-25T12:12:43;6.05;;;1.15;;
42140;SDS011;27809;51.864;5.646;2023-04-25T12:17:44;2.00;;;0.85;;
42140;SDS011;27809;51.864;5.646;2023-04-25T12:20:17;2.45;;;0.30;;
42140;SDS011;27809;51.864;5.646;2023-04-25T12:22:48;1.27;;;0.30;;
42140;SDS011;27809;51.864;5.646;2023-04-25T12:25:34;2.67;;;0.43;;
42140;SDS011;27809;51.864;5.646;2023-04-25T12:28:16;2.35;;;0.38;;
42140;SDS011;27809;51.864;5.646;2023-04-25T12:31:04;10.43;;;0.50;;
42140;SDS011;27809;51.864;5.646;2023-04-25T12:33:32;6.75;;;1.27;;
42140;SDS011;27809;51.864;5.646;2023-04-25T12:35:59;5.88;;;0.80;;
42140;SDS011;27809;51.864;5.646;2023-04-25T12:38:29;3.67;;;0.68;;
42140;SDS011;27809;51.864;5.646;2023-04-25T12:40:59;2.83;;;0.20;;
42140;SDS011;27809;51.864;5.646;2023-04-25T12:43:24;1.48;;;0.20;;
42140;SDS011;27809;51.864;5.646;2023-04-25T12:45:51;2.55;;;0.20;;
42140;SDS011;27809;51.864;5.646;2023-04-25T12:48:17;3.80;;;0.93;;
42140;SDS011;27809;51.864;5.646;2023-04-25T12:50:44;14.25;;;0.50;;
42140;SDS011;27809;51.864;5.646;2023-04-25T12:53:09;1.95;;;0.20;;
42140;SDS011;27809;51.864;5.646;2023-04-25T12:55:36;2.33;;;0.10;;
42140;SDS011;27809;51.864;5.646;2023-04-25T12:58:02;1.00;;;0.10;;
42140;SDS011;27809;51.864;5.646;2023-04-25T13:00:28;10.40;;;0.80;;
42140;SDS011;27809;51.864;5.646;2023-04-25T13:02:54;0.70;;;0.10;;
42140;SDS011;27809;51.864;5.646;2023-04-25T13:05:20;2.72;;;0.45;;
42140;SDS011;27809;51.864;5.646;2023-04-25T13:07:45;4.85;;;0.57;;
42140;SDS011;27809;51.864;5.646;2023-04-25T13:10:11;4.07;;;0.57;;
42140;SDS011;27809;51.864;5.646;2023-04-25T13:12:36;8.40;;;1.10;;
42140;SDS011;27809;51.864;5.646;2023-04-25T13:15:02;4.25;;;0.10;;
42140;SDS011;27809;51.864;5.646;2023-04-25T13:17:28;1.38;;;0.55;;
42140;SDS011;27809;51.864;5.646;2023-04-25T13:19:53;2.28;;;0.85;;
42140;SDS011;27809;51.864;5.646;2023-04-25T13:22:19;0.20;;;0.10;;
42140;SDS011;27809;51.864;5.646;2023-04-25T13:24:45;1.20;;;0.52;;
42140;SDS011;27809;51.864;5.646;2023-04-25T13:27:11;0.95;;;0.20;;
42140;SDS011;27809;51.864;5.646;2023-04-25T13:29:37;1.38;;;0.30;;
42140;SDS011;27809;51.864;5.646;2023-04-25T13:32:05;3.47;;;1.95;;
42140;SDS011;27809;51.864;5.646;2023-04-25T13:34:31;3.42;;;0.20;;
42140;SDS011;27809;51.864;5.646;2023-04-25T13:36:56;2.25;;;0.30;;
42140;SDS011;27809;51.864;5.646;2023-04-25T13:39:22;2.42;;;0.57;;
42140;SDS011;27809;51.864;5.646;2023-04-25T13:41:47;7.10;;;0.75;;
42140;SDS011;27809;51.864;5.646;2023-04-25T13:44:13;4.05;;;0.68;;
42140;SDS011;27809;51.864;5.646;2023-04-25T13:46:38;1.52;;;0.30;;
42140;SDS011;27809;51.864;5.646;2023-04-25T13:49:04;2.67;;;0.57;;
42140;SDS011;27809;51.864;5.646;2023-04-25T13:51:30;3.78;;;0.10;;
42140;SDS011;27809;51.864;5.646;2023-04-25T13:53:56;3.10;;;0.80;;
42140;SDS011;27809;51.864;5.646;2023-04-25T13:56:22;5.05;;;0.77;;
42140;SDS011;27809;51.864;5.646;2023-04-25T13:58:48;2.15;;;0.30;;
42140;SDS011;27809;51.864;5.646;2023-04-25T14:01:15;2.03;;;0.10;;
42140;SDS011;27809;51.864;5.646;2023-04-25T14:03:40;2.72;;;0.15;;
42140;SDS011;27809;51.864;5.646;2023-04-25T14:06:07;2.88;;;0.85;;
42140;SDS011;27809;51.864;5.646;2023-04-25T14:08:33;1.20;;;0.10;;
42140;SDS011;27809;51.864;5.646;2023-04-25T14:10:59;0.47;;;0.10;;
42140;SDS011;27809;51.864;5.646;2023-04-25T14:13:24;2.15;;;0.20;;
42140;SDS011;27809;51.864;5.646;2023-04-25T14:15:50;0.85;;;0.28;;
42140;SDS011;27809;51.864;5.646;2023-04-25T14:18:15;2.22;;;0.52;;
42140;SDS011;27809;51.864;5.646;2023-04-25T14:20:41;1.00;;;0.38;;
42140;SDS011;27809;51.864;5.646;2023-04-25T14:23:07;0.95;;;0.10;;
42140;SDS011;27809;51.864;5.646;2023-04-25T14:25:32;7.35;;;0.32;;
42140;SDS011;27809;51.864;5.646;2023-04-25T14:27:58;4.68;;;0.50;;
42140;SDS011;27809;51.864;5.646;2023-04-25T14:30:23;1.75;;;0.30;;
42140;SDS011;27809;51.864;5.646;2023-04-25T14:32:49;5.97;;;1.08;;
42140;SDS011;27809;51.864;5.646;2023-04-25T14:35:15;1.73;;;0.28;;
42140;SDS011;27809;51.864;5.646;2023-04-25T14:37:40;8.00;;;0.30;;
42140;SDS011;27809;51.864;5.646;2023-04-25T14:40:06;1.02;;;0.55;;
42140;SDS011;27809;51.864;5.646;2023-04-25T14:42:37;0.30;;;0.10;;
42140;SDS011;27809;51.864;5.646;2023-04-25T14:45:04;1.27;;;0.35;;
42140;SDS011;27809;51.864;5.646;2023-04-25T14:47:31;2.90;;;0.40;;
42140;SDS011;27809;51.864;5.646;2023-04-25T14:49:57;5.63;;;0.82;;
42140;SDS011;27809;51.864;5.646;2023-04-25T14:52:22;5.20;;;0.20;;
42140;SDS011;27809;51.864;5.646;2023-04-25T14:54:48;6.82;;;0.60;;